Portada
METAR-TAF:

METAR-TAF

Aeroports :

Taubaté, São Paulo, Brasil

latitud: 23-02-26S, longitud: 45-31-00W, altitud: 577 m

Observació

L'informe es va fer fa 59 minuts, a les 19:00 UTC
Vent 9 kt del Nord/Nord-Est
Temperatura 28°C
Humitat 62%
Pressió 1012 hPa
Visibilitat 10 km o més
Escasses núvols a una alçada de 2000 ft
Núvols disperses a una alçada de 3000 ft
Escasses núvols a una alçada de 3500 ft, Cumulus congestus.

METAR: SBTA 131900Z 03009KT 9999 FEW020 SCT030 FEW035TCU 28/20 Q1012

Hora: 17:59 (19:59 UTC)


TAF: manca

Observacions i pronòstics meteorològics de més de 4000 aeroports (METAR i TAF).

Les estacions disponibles són els punts grocs i vermells al mapa.

Posi el ratolí al punt desitjat per veure el nom de l'estació.

Feu clic per veure les observacions i els pronòstics meteorològics.

Per canviar el mapa: feu clic els botons verds amb una creu de color negre per apropar; al botó verd amb un guió per allunyar la imatge; o en les fletxes verdes per a mapes adjacents.


METAR-TAF: